sensor_id;sensor_type;location;lat;lon;timestamp;P1;durP1;ratioP1;P2;durP2;ratioP2
13560;SDS011;6852;51.686;5.314;2023-05-10T00:00:21;21.77;;;13.20;;
13560;SDS011;6852;51.686;5.314;2023-05-10T00:02:49;20.60;;;13.67;;
13560;SDS011;6852;51.686;5.314;2023-05-10T00:05:18;24.80;;;14.67;;
13560;SDS011;6852;51.686;5.314;2023-05-10T00:07:45;25.00;;;14.23;;
13560;SDS011;6852;51.686;5.314;2023-05-10T00:10:11;24.80;;;15.67;;
13560;SDS011;6852;51.686;5.314;2023-05-10T00:12:39;24.73;;;15.43;;
13560;SDS011;6852;51.686;5.314;2023-05-10T00:15:06;25.87;;;15.13;;
13560;SDS011;6852;51.686;5.314;2023-05-10T00:17:34;29.87;;;15.90;;
13560;SDS011;6852;51.686;5.314;2023-05-10T00:20:01;24.37;;;15.03;;
13560;SDS011;6852;51.686;5.314;2023-05-10T00:22:28;24.50;;;14.13;;
13560;SDS011;6852;51.686;5.314;2023-05-10T00:24:55;26.10;;;14.90;;
13560;SDS011;6852;51.686;5.314;2023-05-10T00:27:21;24.60;;;13.97;;
13560;SDS011;6852;51.686;5.314;2023-05-10T00:29:48;23.93;;;14.37;;
13560;SDS011;6852;51.686;5.314;2023-05-10T00:32:15;23.20;;;13.67;;
13560;SDS011;6852;51.686;5.314;2023-05-10T00:34:42;23.23;;;13.80;;
13560;SDS011;6852;51.686;5.314;2023-05-10T00:37:09;25.40;;;13.30;;
13560;SDS011;6852;51.686;5.314;2023-05-10T00:39:36;26.43;;;14.67;;
13560;SDS011;6852;51.686;5.314;2023-05-10T00:42:03;24.00;;;14.30;;
13560;SDS011;6852;51.686;5.314;2023-05-10T00:44:30;30.73;;;14.47;;
13560;SDS011;6852;51.686;5.314;2023-05-10T00:46:57;22.30;;;13.53;;
13560;SDS011;6852;51.686;5.314;2023-05-10T00:49:25;21.90;;;12.50;;
13560;SDS011;6852;51.686;5.314;2023-05-10T00:51:52;22.40;;;12.43;;
13560;SDS011;6852;51.686;5.314;2023-05-10T00:54:19;25.43;;;12.37;;
13560;SDS011;6852;51.686;5.314;2023-05-10T00:56:46;27.40;;;12.40;;
13560;SDS011;6852;51.686;5.314;2023-05-10T00:59:15;24.60;;;12.57;;
13560;SDS011;6852;51.686;5.314;2023-05-10T01:01:46;23.00;;;13.37;;
13560;SDS011;6852;51.686;5.314;2023-05-10T01:04:13;26.53;;;13.03;;
13560;SDS011;6852;51.686;5.314;2023-05-10T01:06:41;23.47;;;12.07;;
13560;SDS011;6852;51.686;5.314;2023-05-10T01:09:09;26.40;;;13.13;;
13560;SDS011;6852;51.686;5.314;2023-05-10T01:11:38;25.67;;;12.13;;
13560;SDS011;6852;51.686;5.314;2023-05-10T01:14:05;28.20;;;13.33;;
13560;SDS011;6852;51.686;5.314;2023-05-10T01:16:34;28.93;;;15.07;;
13560;SDS011;6852;51.686;5.314;2023-05-10T01:19:04;27.63;;;11.97;;
13560;SDS011;6852;51.686;5.314;2023-05-10T01:27:25;28.00;;;13.30;;
13560;SDS011;6852;51.686;5.314;2023-05-10T01:30:22;29.90;;;13.30;;
13560;SDS011;6852;51.686;5.314;2023-05-10T01:35:56;27.77;;;13.43;;
13560;SDS011;6852;51.686;5.314;2023-05-10T01:41:47;24.90;;;13.93;;
13560;SDS011;6852;51.686;5.314;2023-05-10T01:50:18;32.80;;;15.53;;
13560;SDS011;6852;51.686;5.314;2023-05-10T01:52:53;30.53;;;16.50;;
13560;SDS011;6852;51.686;5.314;2023-05-10T01:55:23;28.50;;;12.63;;
13560;SDS011;6852;51.686;5.314;2023-05-10T01:58:00;23.57;;;12.73;;
13560;SDS011;6852;51.686;5.314;2023-05-10T02:00:36;21.97;;;12.80;;
13560;SDS011;6852;51.686;5.314;2023-05-10T02:03:06;25.80;;;12.93;;
13560;SDS011;6852;51.686;5.314;2023-05-10T02:05:35;24.23;;;13.87;;
13560;SDS011;6852;51.686;5.314;2023-05-10T02:08:05;24.30;;;15.00;;
13560;SDS011;6852;51.686;5.314;2023-05-10T02:10:36;29.63;;;15.37;;
13560;SDS011;6852;51.686;5.314;2023-05-10T02:13:05;26.67;;;14.57;;
13560;SDS011;6852;51.686;5.314;2023-05-10T02:15:34;27.37;;;15.80;;
13560;SDS011;6852;51.686;5.314;2023-05-10T02:18:03;30.17;;;17.13;;
13560;SDS011;6852;51.686;5.314;2023-05-10T02:20:32;29.33;;;16.93;;
13560;SDS011;6852;51.686;5.314;2023-05-10T02:23:01;34.30;;;17.53;;
13560;SDS011;6852;51.686;5.314;2023-05-10T02:25:29;31.60;;;17.17;;
13560;SDS011;6852;51.686;5.314;2023-05-10T02:27:58;33.47;;;18.23;;
13560;SDS011;6852;51.686;5.314;2023-05-10T02:30:28;38.27;;;19.50;;
13560;SDS011;6852;51.686;5.314;2023-05-10T02:32:57;36.70;;;20.73;;
13560;SDS011;6852;51.686;5.314;2023-05-10T02:35:25;36.03;;;20.93;;
13560;SDS011;6852;51.686;5.314;2023-05-10T02:37:53;36.63;;;19.80;;
13560;SDS011;6852;51.686;5.314;2023-05-10T02:40:21;41.50;;;21.13;;
13560;SDS011;6852;51.686;5.314;2023-05-10T02:42:54;43.77;;;22.70;;
13560;SDS011;6852;51.686;5.314;2023-05-10T02:45:23;43.57;;;21.23;;
13560;SDS011;6852;51.686;5.314;2023-05-10T02:47:54;43.17;;;22.60;;
13560;SDS011;6852;51.686;5.314;2023-05-10T02:50:22;42.13;;;22.87;;
13560;SDS011;6852;51.686;5.314;2023-05-10T02:52:59;41.37;;;23.10;;
13560;SDS011;6852;51.686;5.314;2023-05-10T02:55:31;45.73;;;23.97;;
13560;SDS011;6852;51.686;5.314;2023-05-10T02:58:02;42.53;;;23.03;;
13560;SDS011;6852;51.686;5.314;2023-05-10T03:00:30;45.60;;;24.43;;
13560;SDS011;6852;51.686;5.314;2023-05-10T03:02:57;46.87;;;24.10;;
13560;SDS011;6852;51.686;5.314;2023-05-10T03:05:24;39.97;;;23.70;;
13560;SDS011;6852;51.686;5.314;2023-05-10T03:07:51;46.70;;;24.30;;
13560;SDS011;6852;51.686;5.314;2023-05-10T03:10:19;43.73;;;23.57;;
13560;SDS011;6852;51.686;5.314;2023-05-10T03:12:58;46.93;;;26.07;;
13560;SDS011;6852;51.686;5.314;2023-05-10T03:15:40;40.53;;;24.47;;
13560;SDS011;6852;51.686;5.314;2023-05-10T03:18:23;46.33;;;24.43;;
13560;SDS011;6852;51.686;5.314;2023-05-10T03:21:03;44.47;;;24.20;;
13560;SDS011;6852;51.686;5.314;2023-05-10T03:23:43;43.13;;;25.87;;
13560;SDS011;6852;51.686;5.314;2023-05-10T03:26:34;45.87;;;25.27;;
13560;SDS011;6852;51.686;5.314;2023-05-10T03:29:04;43.57;;;25.07;;
13560;SDS011;6852;51.686;5.314;2023-05-10T03:31:32;42.87;;;23.93;;
13560;SDS011;6852;51.686;5.314;2023-05-10T03:33:59;41.00;;;23.33;;
13560;SDS011;6852;51.686;5.314;2023-05-10T03:36:26;41.90;;;22.97;;
13560;SDS011;6852;51.686;5.314;2023-05-10T03:38:53;42.53;;;24.03;;
13560;SDS011;6852;51.686;5.314;2023-05-10T03:41:20;38.53;;;23.20;;
13560;SDS011;6852;51.686;5.314;2023-05-10T03:43:47;35.97;;;21.87;;
13560;SDS011;6852;51.686;5.314;2023-05-10T03:46:14;39.10;;;21.57;;
13560;SDS011;6852;51.686;5.314;2023-05-10T03:48:41;34.00;;;20.77;;
13560;SDS011;6852;51.686;5.314;2023-05-10T03:51:08;37.10;;;22.60;;
13560;SDS011;6852;51.686;5.314;2023-05-10T03:53:35;37.73;;;21.37;;
13560;SDS011;6852;51.686;5.314;2023-05-10T03:56:01;36.97;;;20.90;;
13560;SDS011;6852;51.686;5.314;2023-05-10T03:58:28;38.90;;;21.07;;
13560;SDS011;6852;51.686;5.314;2023-05-10T04:00:55;39.23;;;22.40;;
13560;SDS011;6852;51.686;5.314;2023-05-10T04:03:22;38.03;;;20.67;;
13560;SDS011;6852;51.686;5.314;2023-05-10T04:05:57;35.37;;;20.10;;
13560;SDS011;6852;51.686;5.314;2023-05-10T04:08:26;35.47;;;20.63;;
13560;SDS011;6852;51.686;5.314;2023-05-10T04:10:52;39.93;;;21.57;;
13560;SDS011;6852;51.686;5.314;2023-05-10T04:13:19;44.97;;;21.37;;
13560;SDS011;6852;51.686;5.314;2023-05-10T04:15:47;40.80;;;20.80;;
13560;SDS011;6852;51.686;5.314;2023-05-10T04:18:13;39.50;;;22.60;;
13560;SDS011;6852;51.686;5.314;2023-05-10T04:20:40;34.80;;;19.57;;
13560;SDS011;6852;51.686;5.314;2023-05-10T04:23:07;40.77;;;20.80;;
13560;SDS011;6852;51.686;5.314;2023-05-10T04:25:34;31.43;;;18.77;;
13560;SDS011;6852;51.686;5.314;2023-05-10T04:28:01;41.23;;;19.37;;
13560;SDS011;6852;51.686;5.314;2023-05-10T04:30:28;36.90;;;19.30;;
13560;SDS011;6852;51.686;5.314;2023-05-10T04:32:55;34.07;;;18.93;;
13560;SDS011;6852;51.686;5.314;2023-05-10T04:35:22;37.13;;;20.27;;
13560;SDS011;6852;51.686;5.314;2023-05-10T04:37:49;37.67;;;20.73;;
13560;SDS011;6852;51.686;5.314;2023-05-10T04:40:16;33.43;;;19.77;;
13560;SDS011;6852;51.686;5.314;2023-05-10T04:42:43;39.97;;;21.43;;
13560;SDS011;6852;51.686;5.314;2023-05-10T04:45:10;32.63;;;18.87;;
13560;SDS011;6852;51.686;5.314;2023-05-10T04:47:37;37.77;;;19.33;;
13560;SDS011;6852;51.686;5.314;2023-05-10T04:50:04;39.10;;;22.07;;
13560;SDS011;6852;51.686;5.314;2023-05-10T04:52:32;36.90;;;20.10;;
13560;SDS011;6852;51.686;5.314;2023-05-10T04:54:59;37.53;;;21.37;;
13560;SDS011;6852;51.686;5.314;2023-05-10T04:57:26;32.60;;;19.87;;
13560;SDS011;6852;51.686;5.314;2023-05-10T04:59:53;32.00;;;19.70;;
13560;SDS011;6852;51.686;5.314;2023-05-10T05:02:20;31.20;;;19.67;;
13560;SDS011;6852;51.686;5.314;2023-05-10T05:04:47;34.50;;;20.97;;
13560;SDS011;6852;51.686;5.314;2023-05-10T05:07:14;34.70;;;21.33;;
13560;SDS011;6852;51.686;5.314;2023-05-10T05:09:41;35.73;;;20.83;;
13560;SDS011;6852;51.686;5.314;2023-05-10T05:12:08;33.93;;;18.67;;
13560;SDS011;6852;51.686;5.314;2023-05-10T05:14:40;33.83;;;19.53;;
13560;SDS011;6852;51.686;5.314;2023-05-10T05:17:07;35.43;;;19.07;;
13560;SDS011;6852;51.686;5.314;2023-05-10T05:19:34;34.57;;;18.67;;
13560;SDS011;6852;51.686;5.314;2023-05-10T05:22:01;31.70;;;19.77;;
13560;SDS011;6852;51.686;5.314;2023-05-10T05:24:28;35.37;;;19.03;;
13560;SDS011;6852;51.686;5.314;2023-05-10T05:27:00;36.20;;;19.80;;
13560;SDS011;6852;51.686;5.314;2023-05-10T05:29:27;32.07;;;18.90;;
13560;SDS011;6852;51.686;5.314;2023-05-10T05:31:54;31.23;;;18.83;;
13560;SDS011;6852;51.686;5.314;2023-05-10T05:34:21;30.83;;;18.20;;
13560;SDS011;6852;51.686;5.314;2023-05-10T05:36:48;29.97;;;18.87;;
13560;SDS011;6852;51.686;5.314;2023-05-10T05:39:15;29.33;;;18.10;;
13560;SDS011;6852;51.686;5.314;2023-05-10T05:41:42;37.33;;;19.00;;
13560;SDS011;6852;51.686;5.314;2023-05-10T05:44:09;32.37;;;19.53;;
13560;SDS011;6852;51.686;5.314;2023-05-10T05:46:36;30.40;;;19.53;;
13560;SDS011;6852;51.686;5.314;2023-05-10T05:49:03;33.20;;;19.67;;
13560;SDS011;6852;51.686;5.314;2023-05-10T05:51:30;32.67;;;17.67;;
13560;SDS011;6852;51.686;5.314;2023-05-10T05:53:57;39.27;;;18.27;;
13560;SDS011;6852;51.686;5.314;2023-05-10T05:56:24;27.77;;;17.37;;
13560;SDS011;6852;51.686;5.314;2023-05-10T05:58:51;32.83;;;17.97;;
13560;SDS011;6852;51.686;5.314;2023-05-10T06:01:18;31.80;;;17.40;;
13560;SDS011;6852;51.686;5.314;2023-05-10T06:03:45;25.27;;;17.40;;
13560;SDS011;6852;51.686;5.314;2023-05-10T06:06:12;32.27;;;17.67;;
13560;SDS011;6852;51.686;5.314;2023-05-10T06:08:38;30.60;;;17.17;;
13560;SDS011;6852;51.686;5.314;2023-05-10T06:11:05;30.90;;;17.63;;
13560;SDS011;6852;51.686;5.314;2023-05-10T06:13:32;27.63;;;17.13;;
13560;SDS011;6852;51.686;5.314;2023-05-10T06:16:02;32.00;;;17.67;;
13560;SDS011;6852;51.686;5.314;2023-05-10T06:18:29;24.63;;;17.00;;
13560;SDS011;6852;51.686;5.314;2023-05-10T06:20:56;33.43;;;17.37;;
13560;SDS011;6852;51.686;5.314;2023-05-10T06:23:23;33.67;;;17.43;;
13560;SDS011;6852;51.686;5.314;2023-05-10T06:25:51;28.93;;;16.97;;
13560;SDS011;6852;51.686;5.314;2023-05-10T06:28:18;30.70;;;17.63;;
13560;SDS011;6852;51.686;5.314;2023-05-10T06:30:45;30.83;;;18.57;;
13560;SDS011;6852;51.686;5.314;2023-05-10T06:33:12;32.77;;;18.67;;
13560;SDS011;6852;51.686;5.314;2023-05-10T06:35:39;30.20;;;17.37;;
13560;SDS011;6852;51.686;5.314;2023-05-10T06:38:06;32.13;;;18.33;;
13560;SDS011;6852;51.686;5.314;2023-05-10T06:40:33;33.13;;;19.33;;
13560;SDS011;6852;51.686;5.314;2023-05-10T06:42:59;34.67;;;19.80;;
13560;SDS011;6852;51.686;5.314;2023-05-10T06:45:26;32.50;;;18.73;;
13560;SDS011;6852;51.686;5.314;2023-05-10T06:47:53;30.80;;;19.97;;
13560;SDS011;6852;51.686;5.314;2023-05-10T06:50:20;32.13;;;20.43;;
13560;SDS011;6852;51.686;5.314;2023-05-10T06:52:47;33.13;;;19.70;;
13560;SDS011;6852;51.686;5.314;2023-05-10T06:55:15;30.10;;;19.53;;
13560;SDS011;6852;51.686;5.314;2023-05-10T06:57:42;31.60;;;19.60;;
13560;SDS011;6852;51.686;5.314;2023-05-10T07:00:09;29.77;;;20.27;;
13560;SDS011;6852;51.686;5.314;2023-05-10T07:02:37;26.10;;;18.20;;
13560;SDS011;6852;51.686;5.314;2023-05-10T07:05:04;24.57;;;17.40;;
13560;SDS011;6852;51.686;5.314;2023-05-10T07:07:31;28.20;;;17.93;;
13560;SDS011;6852;51.686;5.314;2023-05-10T07:09:58;24.13;;;17.10;;
13560;SDS011;6852;51.686;5.314;2023-05-10T07:12:25;27.83;;;17.23;;
13560;SDS011;6852;51.686;5.314;2023-05-10T07:14:52;28.93;;;16.20;;
13560;SDS011;6852;51.686;5.314;2023-05-10T07:17:19;28.80;;;17.40;;
13560;SDS011;6852;51.686;5.314;2023-05-10T07:19:46;23.40;;;15.60;;
13560;SDS011;6852;51.686;5.314;2023-05-10T07:22:13;28.67;;;15.60;;
13560;SDS011;6852;51.686;5.314;2023-05-10T07:24:41;22.53;;;14.63;;
13560;SDS011;6852;51.686;5.314;2023-05-10T07:27:08;22.30;;;14.33;;
13560;SDS011;6852;51.686;5.314;2023-05-10T07:29:35;25.20;;;16.40;;
13560;SDS011;6852;51.686;5.314;2023-05-10T07:32:02;27.53;;;15.83;;
13560;SDS011;6852;51.686;5.314;2023-05-10T07:34:29;26.13;;;17.07;;
13560;SDS011;6852;51.686;5.314;2023-05-10T07:36:59;27.10;;;17.60;;
13560;SDS011;6852;51.686;5.314;2023-05-10T07:39:27;28.20;;;17.40;;
13560;SDS011;6852;51.686;5.314;2023-05-10T07:41:54;30.07;;;18.43;;
13560;SDS011;6852;51.686;5.314;2023-05-10T07:44:22;25.57;;;16.97;;
13560;SDS011;6852;51.686;5.314;2023-05-10T07:46:49;26.27;;;18.70;;
13560;SDS011;6852;51.686;5.314;2023-05-10T07:49:16;26.13;;;17.17;;
13560;SDS011;6852;51.686;5.314;2023-05-10T07:51:43;30.50;;;18.97;;
13560;SDS011;6852;51.686;5.314;2023-05-10T07:54:10;30.90;;;18.00;;
13560;SDS011;6852;51.686;5.314;2023-05-10T07:56:37;24.33;;;16.20;;
13560;SDS011;6852;51.686;5.314;2023-05-10T07:59:06;23.33;;;17.30;;
13560;SDS011;6852;51.686;5.314;2023-05-10T08:01:35;31.73;;;17.67;;
13560;SDS011;6852;51.686;5.314;2023-05-10T08:04:02;24.87;;;17.40;;
13560;SDS011;6852;51.686;5.314;2023-05-10T08:06:29;25.40;;;16.60;;
13560;SDS011;6852;51.686;5.314;2023-05-10T08:08:56;25.10;;;18.07;;
13560;SDS011;6852;51.686;5.314;2023-05-10T08:11:23;24.67;;;15.57;;
13560;SDS011;6852;51.686;5.314;2023-05-10T08:13:51;24.63;;;16.70;;
13560;SDS011;6852;51.686;5.314;2023-05-10T08:16:18;28.93;;;16.77;;
13560;SDS011;6852;51.686;5.314;2023-05-10T08:18:45;25.17;;;14.90;;
13560;SDS011;6852;51.686;5.314;2023-05-10T08:21:13;23.90;;;15.07;;
13560;SDS011;6852;51.686;5.314;2023-05-10T08:23:41;24.50;;;15.20;;
13560;SDS011;6852;51.686;5.314;2023-05-10T08:26:10;23.63;;;14.97;;
13560;SDS011;6852;51.686;5.314;2023-05-10T08:28:37;19.67;;;13.40;;
13560;SDS011;6852;51.686;5.314;2023-05-10T08:31:04;20.43;;;12.77;;
13560;SDS011;6852;51.686;5.314;2023-05-10T08:33:31;21.67;;;11.90;;
13560;SDS011;6852;51.686;5.314;2023-05-10T08:35:58;17.60;;;12.20;;
13560;SDS011;6852;51.686;5.314;2023-05-10T08:38:25;16.47;;;11.83;;
13560;SDS011;6852;51.686;5.314;2023-05-10T08:40:52;17.00;;;11.37;;
13560;SDS011;6852;51.686;5.314;2023-05-10T08:43:26;14.57;;;9.90;;
13560;SDS011;6852;51.686;5.314;2023-05-10T08:45:56;14.23;;;9.63;;
13560;SDS011;6852;51.686;5.314;2023-05-10T08:48:30;15.47;;;9.73;;
13560;SDS011;6852;51.686;5.314;2023-05-10T08:51:00;14.23;;;8.83;;
13560;SDS011;6852;51.686;5.314;2023-05-10T08:53:30;11.00;;;8.93;;
13560;SDS011;6852;51.686;5.314;2023-05-10T08:56:00;12.10;;;8.10;;
13560;SDS011;6852;51.686;5.314;2023-05-10T08:58:28;10.47;;;7.77;;
13560;SDS011;6852;51.686;5.314;2023-05-10T09:00:55;10.17;;;7.80;;
13560;SDS011;6852;51.686;5.314;2023-05-10T09:03:24;11.43;;;8.17;;
13560;SDS011;6852;51.686;5.314;2023-05-10T09:05:51;8.00;;;7.17;;
13560;SDS011;6852;51.686;5.314;2023-05-10T09:08:18;10.77;;;7.00;;
13560;SDS011;6852;51.686;5.314;2023-05-10T09:10:46;7.10;;;5.97;;
13560;SDS011;6852;51.686;5.314;2023-05-10T09:13:14;8.37;;;6.23;;
13560;SDS011;6852;51.686;5.314;2023-05-10T09:15:44;12.53;;;6.73;;
13560;SDS011;6852;51.686;5.314;2023-05-10T09:18:12;8.30;;;6.77;;
13560;SDS011;6852;51.686;5.314;2023-05-10T09:20:39;10.40;;;6.93;;
13560;SDS011;6852;51.686;5.314;2023-05-10T09:23:06;10.90;;;7.83;;
13560;SDS011;6852;51.686;5.314;2023-05-10T09:25:34;11.33;;;7.20;;
13560;SDS011;6852;51.686;5.314;2023-05-10T09:28:01;11.40;;;8.67;;
13560;SDS011;6852;51.686;5.314;2023-05-10T09:30:29;12.27;;;7.87;;
13560;SDS011;6852;51.686;5.314;2023-05-10T09:32:57;13.33;;;8.80;;
13560;SDS011;6852;51.686;5.314;2023-05-10T09:35:26;14.47;;;9.77;;
13560;SDS011;6852;51.686;5.314;2023-05-10T09:37:56;16.40;;;9.83;;
13560;SDS011;6852;51.686;5.314;2023-05-10T09:40:24;12.53;;;9.03;;
13560;SDS011;6852;51.686;5.314;2023-05-10T09:43:08;12.63;;;9.30;;
13560;SDS011;6852;51.686;5.314;2023-05-10T09:45:36;14.43;;;10.33;;
13560;SDS011;6852;51.686;5.314;2023-05-10T09:48:04;13.90;;;10.43;;
13560;SDS011;6852;51.686;5.314;2023-05-10T09:50:32;12.97;;;9.83;;
13560;SDS011;6852;51.686;5.314;2023-05-10T09:53:01;13.57;;;9.63;;
13560;SDS011;6852;51.686;5.314;2023-05-10T09:58:07;11.83;;;8.03;;
13560;SDS011;6852;51.686;5.314;2023-05-10T10:00:38;11.27;;;8.27;;
13560;SDS011;6852;51.686;5.314;2023-05-10T10:03:15;14.87;;;8.20;;
13560;SDS011;6852;51.686;5.314;2023-05-10T10:05:43;11.07;;;7.73;;
13560;SDS011;6852;51.686;5.314;2023-05-10T10:08:12;10.63;;;8.43;;
13560;SDS011;6852;51.686;5.314;2023-05-10T10:10:39;9.60;;;7.93;;
13560;SDS011;6852;51.686;5.314;2023-05-10T10:13:07;11.30;;;7.77;;
13560;SDS011;6852;51.686;5.314;2023-05-10T10:15:34;13.40;;;9.03;;
13560;SDS011;6852;51.686;5.314;2023-05-10T10:18:01;11.80;;;8.43;;
13560;SDS011;6852;51.686;5.314;2023-05-10T10:20:30;12.37;;;8.30;;
13560;SDS011;6852;51.686;5.314;2023-05-10T10:22:57;12.30;;;8.17;;
13560;SDS011;6852;51.686;5.314;2023-05-10T10:25:24;13.33;;;9.17;;
13560;SDS011;6852;51.686;5.314;2023-05-10T10:31:02;14.40;;;9.17;;
13560;SDS011;6852;51.686;5.314;2023-05-10T10:33:30;10.90;;;8.40;;
13560;SDS011;6852;51.686;5.314;2023-05-10T10:36:06;13.47;;;8.47;;
13560;SDS011;6852;51.686;5.314;2023-05-10T10:39:16;12.37;;;8.27;;
13560;SDS011;6852;51.686;5.314;2023-05-10T10:50:06;12.57;;;8.17;;
13560;SDS011;6852;51.686;5.314;2023-05-10T10:57:54;10.07;;;7.90;;
13560;SDS011;6852;51.686;5.314;2023-05-10T11:03:09;9.20;;;6.83;;
13560;SDS011;6852;51.686;5.314;2023-05-10T11:05:46;8.70;;;6.53;;
13560;SDS011;6852;51.686;5.314;2023-05-10T11:13:27;10.10;;;7.70;;
13560;SDS011;6852;51.686;5.314;2023-05-10T11:16:22;9.47;;;7.10;;
13560;SDS011;6852;51.686;5.314;2023-05-10T11:18:57;9.30;;;6.87;;
13560;SDS011;6852;51.686;5.314;2023-05-10T11:21:29;8.37;;;7.20;;
13560;SDS011;6852;51.686;5.314;2023-05-10T11:23:57;11.90;;;7.73;;
13560;SDS011;6852;51.686;5.314;2023-05-10T11:26:35;11.40;;;7.70;;
13560;SDS011;6852;51.686;5.314;2023-05-10T11:29:02;11.60;;;7.97;;
13560;SDS011;6852;51.686;5.314;2023-05-10T11:31:31;9.20;;;7.20;;
13560;SDS011;6852;51.686;5.314;2023-05-10T11:33:58;11.20;;;7.77;;
13560;SDS011;6852;51.686;5.314;2023-05-10T11:36:28;10.63;;;7.63;;
13560;SDS011;6852;51.686;5.314;2023-05-10T11:38:59;9.80;;;7.90;;
13560;SDS011;6852;51.686;5.314;2023-05-10T11:41:27;9.47;;;7.23;;
13560;SDS011;6852;51.686;5.314;2023-05-10T11:43:55;10.17;;;7.17;;
13560;SDS011;6852;51.686;5.314;2023-05-10T11:46:26;16.57;;;9.43;;
13560;SDS011;6852;51.686;5.314;2023-05-10T11:48:57;9.80;;;7.57;;
13560;SDS011;6852;51.686;5.314;2023-05-10T11:51:28;11.60;;;7.20;;
13560;SDS011;6852;51.686;5.314;2023-05-10T11:53:55;9.07;;;7.40;;
13560;SDS011;6852;51.686;5.314;2023-05-10T11:56:23;9.47;;;7.70;;
13560;SDS011;6852;51.686;5.314;2023-05-10T11:58:55;8.60;;;7.80;;
13560;SDS011;6852;51.686;5.314;2023-05-10T12:01:24;11.70;;;8.87;;
13560;SDS011;6852;51.686;5.314;2023-05-10T12:03:53;10.97;;;8.67;;
13560;SDS011;6852;51.686;5.314;2023-05-10T12:06:21;11.13;;;9.17;;
13560;SDS011;6852;51.686;5.314;2023-05-10T12:08:49;11.23;;;8.33;;
13560;SDS011;6852;51.686;5.314;2023-05-10T12:11:18;10.50;;;9.50;;
13560;SDS011;6852;51.686;5.314;2023-05-10T12:13:47;9.17;;;8.27;;
13560;SDS011;6852;51.686;5.314;2023-05-10T12:16:19;9.27;;;7.87;;
13560;SDS011;6852;51.686;5.314;2023-05-10T12:18:48;7.07;;;6.37;;
13560;SDS011;6852;51.686;5.314;2023-05-10T12:21:17;7.87;;;6.87;;
13560;SDS011;6852;51.686;5.314;2023-05-10T12:23:49;7.47;;;6.50;;
13560;SDS011;6852;51.686;5.314;2023-05-10T12:26:18;8.33;;;6.60;;
13560;SDS011;6852;51.686;5.314;2023-05-10T12:28:47;7.80;;;7.00;;
13560;SDS011;6852;51.686;5.314;2023-05-10T12:31:14;8.17;;;6.83;;
13560;SDS011;6852;51.686;5.314;2023-05-10T12:33:42;8.27;;;5.80;;
13560;SDS011;6852;51.686;5.314;2023-05-10T12:36:10;8.37;;;5.87;;
13560;SDS011;6852;51.686;5.314;2023-05-10T12:38:41;5.13;;;4.63;;
13560;SDS011;6852;51.686;5.314;2023-05-10T12:41:10;5.10;;;4.60;;
13560;SDS011;6852;51.686;5.314;2023-05-10T12:43:39;5.83;;;4.47;;
13560;SDS011;6852;51.686;5.314;2023-05-10T12:46:13;6.17;;;4.40;;
13560;SDS011;6852;51.686;5.314;2023-05-10T12:48:43;6.13;;;4.73;;
13560;SDS011;6852;51.686;5.314;2023-05-10T12:51:11;4.53;;;4.13;;
13560;SDS011;6852;51.686;5.314;2023-05-10T12:53:41;6.80;;;4.33;;
13560;SDS011;6852;51.686;5.314;2023-05-10T12:56:11;8.90;;;4.00;;
13560;SDS011;6852;51.686;5.314;2023-05-10T12:58:38;5.33;;;3.80;;
13560;SDS011;6852;51.686;5.314;2023-05-10T13:01:05;8.03;;;4.57;;
13560;SDS011;6852;51.686;5.314;2023-05-10T13:03:32;6.47;;;4.03;;
13560;SDS011;6852;51.686;5.314;2023-05-10T13:05:59;4.07;;;3.67;;
13560;SDS011;6852;51.686;5.314;2023-05-10T13:08:26;6.20;;;4.03;;
13560;SDS011;6852;51.686;5.314;2023-05-10T13:10:53;4.37;;;3.80;;
13560;SDS011;6852;51.686;5.314;2023-05-10T13:13:20;5.00;;;4.50;;
13560;SDS011;6852;51.686;5.314;2023-05-10T13:15:46;5.33;;;4.73;;
13560;SDS011;6852;51.686;5.314;2023-05-10T13:18:13;6.87;;;5.10;;
13560;SDS011;6852;51.686;5.314;2023-05-10T13:20:40;6.47;;;5.63;;
13560;SDS011;6852;51.686;5.314;2023-05-10T13:23:09;6.70;;;5.20;;
13560;SDS011;6852;51.686;5.314;2023-05-10T13:25:36;7.63;;;5.87;;
13560;SDS011;6852;51.686;5.314;2023-05-10T13:28:03;7.60;;;6.67;;
13560;SDS011;6852;51.686;5.314;2023-05-10T13:30:30;6.93;;;6.23;;
13560;SDS011;6852;51.686;5.314;2023-05-10T13:32:57;9.33;;;7.57;;
13560;SDS011;6852;51.686;5.314;2023-05-10T13:35:24;9.40;;;7.30;;
13560;SDS011;6852;51.686;5.314;2023-05-10T13:37:51;8.87;;;7.90;;
13560;SDS011;6852;51.686;5.314;2023-05-10T13:40:19;8.77;;;7.90;;
13560;SDS011;6852;51.686;5.314;2023-05-10T13:42:46;12.17;;;9.43;;
13560;SDS011;6852;51.686;5.314;2023-05-10T13:45:13;10.67;;;9.30;;
13560;SDS011;6852;51.686;5.314;2023-05-10T13:47:40;11.17;;;9.57;;
13560;SDS011;6852;51.686;5.314;2023-05-10T13:50:07;11.97;;;10.70;;
13560;SDS011;6852;51.686;5.314;2023-05-10T13:52:34;13.43;;;11.40;;
13560;SDS011;6852;51.686;5.314;2023-05-10T13:55:01;13.93;;;11.40;;
13560;SDS011;6852;51.686;5.314;2023-05-10T13:57:28;12.27;;;11.07;;
13560;SDS011;6852;51.686;5.314;2023-05-10T13:59:56;13.10;;;11.80;;
13560;SDS011;6852;51.686;5.314;2023-05-10T14:02:23;12.73;;;11.50;;
13560;SDS011;6852;51.686;5.314;2023-05-10T14:04:51;13.47;;;11.70;;
13560;SDS011;6852;51.686;5.314;2023-05-10T14:07:17;13.57;;;12.17;;
13560;SDS011;6852;51.686;5.314;2023-05-10T14:09:45;14.03;;;12.60;;
13560;SDS011;6852;51.686;5.314;2023-05-10T14:12:12;12.30;;;11.00;;
13560;SDS011;6852;51.686;5.314;2023-05-10T14:14:40;12.87;;;11.57;;
13560;SDS011;6852;51.686;5.314;2023-05-10T14:17:07;12.40;;;11.20;;
13560;SDS011;6852;51.686;5.314;2023-05-10T14:19:37;12.90;;;11.60;;
13560;SDS011;6852;51.686;5.314;2023-05-10T14:22:05;15.27;;;12.53;;
13560;SDS011;6852;51.686;5.314;2023-05-10T14:24:32;13.47;;;11.63;;
13560;SDS011;6852;51.686;5.314;2023-05-10T14:26:59;14.20;;;12.20;;
13560;SDS011;6852;51.686;5.314;2023-05-10T14:29:26;13.53;;;11.80;;
13560;SDS011;6852;51.686;5.314;2023-05-10T14:31:53;12.93;;;11.23;;
13560;SDS011;6852;51.686;5.314;2023-05-10T14:34:20;12.50;;;11.30;;
13560;SDS011;6852;51.686;5.314;2023-05-10T14:36:47;13.27;;;11.93;;
13560;SDS011;6852;51.686;5.314;2023-05-10T14:39:14;14.50;;;11.33;;
13560;SDS011;6852;51.686;5.314;2023-05-10T14:41:40;12.60;;;11.30;;
13560;SDS011;6852;51.686;5.314;2023-05-10T14:44:09;15.37;;;10.93;;
13560;SDS011;6852;51.686;5.314;2023-05-10T14:46:36;12.33;;;11.07;;
13560;SDS011;6852;51.686;5.314;2023-05-10T14:49:03;13.13;;;11.77;;
13560;SDS011;6852;51.686;5.314;2023-05-10T14:51:30;12.57;;;11.27;;
13560;SDS011;6852;51.686;5.314;2023-05-10T14:53:58;13.37;;;12.17;;
13560;SDS011;6852;51.686;5.314;2023-05-10T14:56:25;13.93;;;11.17;;
13560;SDS011;6852;51.686;5.314;2023-05-10T14:58:52;13.00;;;10.87;;
13560;SDS011;6852;51.686;5.314;2023-05-10T15:01:19;13.97;;;10.90;;
13560;SDS011;6852;51.686;5.314;2023-05-10T15:03:47;12.13;;;10.93;;
13560;SDS011;6852;51.686;5.314;2023-05-10T15:06:14;12.63;;;11.33;;
13560;SDS011;6852;51.686;5.314;2023-05-10T15:08:44;13.80;;;12.03;;
13560;SDS011;6852;51.686;5.314;2023-05-10T15:11:11;16.67;;;11.23;;
13560;SDS011;6852;51.686;5.314;2023-05-10T15:13:38;14.17;;;11.07;;
13560;SDS011;6852;51.686;5.314;2023-05-10T15:16:04;13.17;;;10.50;;
13560;SDS011;6852;51.686;5.314;2023-05-10T15:18:31;12.10;;;10.80;;
13560;SDS011;6852;51.686;5.314;2023-05-10T15:20:58;12.67;;;9.50;;
13560;SDS011;6852;51.686;5.314;2023-05-10T15:23:25;13.97;;;11.17;;
13560;SDS011;6852;51.686;5.314;2023-05-10T15:25:52;12.40;;;9.67;;
13560;SDS011;6852;51.686;5.314;2023-05-10T15:28:22;10.70;;;9.70;;
13560;SDS011;6852;51.686;5.314;2023-05-10T15:30:48;12.23;;;10.97;;
13560;SDS011;6852;51.686;5.314;2023-05-10T15:33:16;11.33;;;10.13;;